createdAt,value
2019-04-30T00:00:34.780Z,10.40
2019-04-30T00:02:40.327Z,10.10
2019-04-30T00:04:45.618Z,11.00
2019-04-30T00:06:49.279Z,11.70
2019-04-30T00:08:52.974Z,11.10
2019-04-30T00:10:57.785Z,11.60
2019-04-30T00:13:01.415Z,11.60
2019-04-30T00:15:06.268Z,12.10
2019-04-30T00:17:10.748Z,12.40
2019-04-30T00:19:19.450Z,12.90
2019-04-30T00:21:20.823Z,12.60
2019-04-30T00:23:27.210Z,12.40
2019-04-30T00:25:29.998Z,12.00
2019-04-30T00:27:35.540Z,12.20
2019-04-30T00:29:39.068Z,11.40
2019-04-30T00:31:44.669Z,11.20
2019-04-30T00:33:48.353Z,11.60
2019-04-30T00:35:55.220Z,11.70
2019-04-30T00:38:00.129Z,10.70
2019-04-30T00:40:02.968Z,11.20
2019-04-30T00:42:06.633Z,11.20
2019-04-30T00:44:10.462Z,11.10
2019-04-30T00:46:17.257Z,11.30
2019-04-30T00:48:27.866Z,11.80
2019-04-30T00:50:24.999Z,12.50
2019-04-30T00:52:29.539Z,12.30
2019-04-30T00:54:35.175Z,11.40
2019-04-30T00:56:39.020Z,11.40
2019-04-30T00:58:42.691Z,11.70
2019-04-30T01:01:06.763Z,12.30
2019-04-30T01:03:09.409Z,12.20
2019-04-30T01:05:22.019Z,12.00
2019-04-30T01:07:26.561Z,11.30
2019-04-30T01:09:30.603Z,11.50
2019-04-30T01:11:35.541Z,11.30
2019-04-30T01:13:41.448Z,11.70
2019-04-30T01:15:49.059Z,12.30
2019-04-30T01:17:53.604Z,12.40
2019-04-30T01:19:55.414Z,12.60
2019-04-30T01:21:59.443Z,11.60
2019-04-30T01:24:03.260Z,11.50
2019-04-30T01:26:08.637Z,11.50
2019-04-30T01:28:16.250Z,12.30
2019-04-30T01:30:22.522Z,12.70
2019-04-30T01:32:23.449Z,12.40
2019-04-30T01:34:27.119Z,12.10
2019-04-30T01:36:30.809Z,11.90
2019-04-30T01:38:34.468Z,12.30
2019-04-30T01:40:42.856Z,12.70
2019-04-30T01:42:48.537Z,12.30
2019-04-30T01:44:53.989Z,12.10
2019-04-30T01:46:58.868Z,12.50
2019-04-30T01:49:02.606Z,13.00
2019-04-30T01:51:06.275Z,13.30
2019-04-30T01:53:13.058Z,13.40
2019-04-30T01:55:15.555Z,12.90
2019-04-30T01:57:32.796Z,13.00
2019-04-30T01:59:54.110Z,13.20
2019-04-30T02:01:58.587Z,13.30
2019-04-30T02:04:02.414Z,13.50
2019-04-30T02:06:06.172Z,13.70
2019-04-30T02:08:09.862Z,13.80
2019-04-30T02:10:13.722Z,13.70
2019-04-30T02:12:21.686Z,13.80
2019-04-30T02:14:22.813Z,13.80
2019-04-30T02:16:28.777Z,14.00
2019-04-30T02:18:32.164Z,14.10
2019-04-30T02:20:35.805Z,14.30
2019-04-30T02:22:39.493Z,14.30
2019-04-30T02:24:43.149Z,14.40
2019-04-30T02:26:48.387Z,14.20
2019-04-30T02:28:52.614Z,14.10
2019-04-30T02:30:56.369Z,14.20
2019-04-30T02:33:00.839Z,14.00
2019-04-30T02:35:09.581Z,14.10
2019-04-30T02:37:16.900Z,14.20
2019-04-30T02:39:20.565Z,14.30
2019-04-30T02:41:25.028Z,14.30
2019-04-30T02:43:31.307Z,13.50
2019-04-30T02:45:39.929Z,13.60
2019-04-30T02:47:42.615Z,13.80
2019-04-30T02:49:49.537Z,14.00
2019-04-30T02:51:54.129Z,13.30
2019-04-30T02:54:06.848Z,13.70
2019-04-30T02:56:11.200Z,13.80
2019-04-30T02:58:14.857Z,13.80
2019-04-30T03:00:20.611Z,13.30
2019-04-30T03:02:24.717Z,13.40
2019-04-30T03:04:29.363Z,13.50
2019-04-30T03:06:33.243Z,13.60
2019-04-30T03:08:37.056Z,13.80
2019-04-30T03:10:40.711Z,13.90
2019-04-30T03:12:44.366Z,14.00
2019-04-30T03:14:50.197Z,14.20
2019-04-30T03:16:54.996Z,14.40
2019-04-30T03:19:00.239Z,14.60
2019-04-30T03:21:09.773Z,14.60
2019-04-30T03:23:13.575Z,14.40
2019-04-30T03:25:19.292Z,14.30
2019-04-30T03:27:24.799Z,14.00
2019-04-30T03:29:30.324Z,14.10
2019-04-30T03:31:33.460Z,14.10
2019-04-30T03:33:41.852Z,14.10
2019-04-30T03:35:47.667Z,14.10
2019-04-30T03:37:50.809Z,14.20
2019-04-30T03:39:54.546Z,14.30
2019-04-30T03:41:59.674Z,14.20
2019-04-30T03:44:17.171Z,14.30
2019-04-30T03:46:10.165Z,14.30
2019-04-30T03:48:14.103Z,14.40
2019-04-30T03:50:19.828Z,14.30
2019-04-30T03:52:23.181Z,14.50
2019-04-30T03:54:29.540Z,14.40
2019-04-30T03:56:33.267Z,14.30
2019-04-30T03:58:39.522Z,14.30
2019-04-30T04:01:00.449Z,12.80
2019-04-30T04:03:04.188Z,12.90
2019-04-30T04:05:10.639Z,13.10
2019-04-30T04:07:20.274Z,13.00
2019-04-30T04:09:29.999Z,13.40
2019-04-30T04:11:35.652Z,13.10
2019-04-30T04:13:40.055Z,12.70
2019-04-30T04:15:43.938Z,12.40
2019-04-30T04:17:50.179Z,12.80
2019-04-30T04:19:53.034Z,12.80
2019-04-30T04:21:56.714Z,13.20
2019-04-30T04:24:00.367Z,13.30
2019-04-30T04:26:04.162Z,13.40
2019-04-30T04:28:10.001Z,13.70
2019-04-30T04:30:13.383Z,13.70
2019-04-30T04:32:17.066Z,13.80
2019-04-30T04:34:20.733Z,13.50
2019-04-30T04:36:24.467Z,13.80
2019-04-30T04:38:30.413Z,13.90
2019-04-30T04:40:33.664Z,13.70
2019-04-30T04:42:39.485Z,13.30
2019-04-30T04:44:42.740Z,13.30
2019-04-30T04:46:46.468Z,13.00
2019-04-30T04:48:50.167Z,12.80
2019-04-30T04:50:53.890Z,12.70
2019-04-30T04:52:59.477Z,12.70
2019-04-30T04:55:05.892Z,12.90
2019-04-30T04:57:17.667Z,13.30
2019-04-30T04:59:15.718Z,12.60
2019-04-30T05:01:20.432Z,13.10
2019-04-30T05:03:25.839Z,13.50
2019-04-30T05:05:29.925Z,13.50
2019-04-30T05:07:33.856Z,13.30
2019-04-30T05:09:37.520Z,12.60
2019-04-30T05:11:41.183Z,11.90
2019-04-30T05:13:44.866Z,12.20
2019-04-30T05:15:51.260Z,12.10
2019-04-30T05:17:53.977Z,12.30
2019-04-30T05:19:58.651Z,12.70
2019-04-30T05:22:02.591Z,12.40
2019-04-30T05:24:06.272Z,12.30
2019-04-30T05:26:11.116Z,12.20
2019-04-30T05:28:15.026Z,12.50
2019-04-30T05:30:19.889Z,12.40
2019-04-30T05:32:23.857Z,12.30
2019-04-30T05:34:28.841Z,12.60
2019-04-30T05:36:32.582Z,12.70
2019-04-30T05:38:36.274Z,13.00
2019-04-30T05:40:42.439Z,13.50
2019-04-30T05:42:45.345Z,13.60
2019-04-30T05:44:49.765Z,12.50
2019-04-30T05:46:53.585Z,12.60
2019-04-30T05:48:57.272Z,12.70
2019-04-30T05:51:01.028Z,12.60
2019-04-30T05:53:04.737Z,12.50
2019-04-30T05:55:08.802Z,11.80
2019-04-30T05:57:12.679Z,12.40
2019-04-30T05:59:16.367Z,12.90
2019-04-30T06:01:20.147Z,13.30
2019-04-30T06:03:29.735Z,13.20
2019-04-30T06:05:31.921Z,13.30
2019-04-30T06:07:35.591Z,13.40
2019-04-30T06:09:48.539Z,13.60
2019-04-30T06:11:53.948Z,13.90
2019-04-30T06:14:15.814Z,13.80
2019-04-30T06:16:21.067Z,14.10
2019-04-30T06:18:24.730Z,14.50
2019-04-30T06:20:28.897Z,14.50
2019-04-30T06:22:32.574Z,14.50
2019-04-30T06:28:59.286Z,12.40
2019-04-30T06:31:03.911Z,12.30
2019-04-30T06:33:09.305Z,12.20
2019-04-30T06:35:13.590Z,12.20
2019-04-30T06:37:19.286Z,11.80
2019-04-30T06:39:22.704Z,12.30
2019-04-30T06:41:26.442Z,12.60
2019-04-30T06:43:30.489Z,12.30
2019-04-30T06:45:35.862Z,11.80
2019-04-30T06:47:39.782Z,12.00
2019-04-30T06:49:43.461Z,11.20
2019-04-30T06:51:49.094Z,11.40
2019-04-30T06:53:53.048Z,11.20
2019-04-30T06:55:58.860Z,11.00
2019-04-30T06:58:11.864Z,11.10
2019-04-30T07:00:09.858Z,11.40
2019-04-30T07:02:13.751Z,10.90
2019-04-30T07:04:19.352Z,10.70
2019-04-30T07:06:29.562Z,10.50
2019-04-30T07:08:38.838Z,10.80
2019-04-30T07:10:36.030Z,10.90
2019-04-30T07:12:48.989Z,10.90
2019-04-30T07:14:52.730Z,11.50
2019-04-30T07:16:56.414Z,10.50
2019-04-30T07:19:00.084Z,10.60
2019-04-30T07:21:03.769Z,10.80
2019-04-30T07:23:09.168Z,10.60
2019-04-30T07:25:12.967Z,10.80
2019-04-30T07:27:21.753Z,11.60
2019-04-30T07:29:22.202Z,11.80
2019-04-30T07:31:25.939Z,11.40
2019-04-30T07:33:29.670Z,11.20
2019-04-30T07:35:33.359Z,11.00
2019-04-30T07:37:38.964Z,11.20
2019-04-30T07:39:42.498Z,11.20
2019-04-30T07:41:46.191Z,10.60
2019-04-30T07:43:50.103Z,10.60
2019-04-30T07:45:53.949Z,11.00
2019-04-30T07:47:59.333Z,12.10
2019-04-30T07:50:03.591Z,12.20
2019-04-30T07:52:08.835Z,10.60
2019-04-30T07:54:12.675Z,10.60
2019-04-30T07:56:25.597Z,10.80
2019-04-30T07:58:21.764Z,10.50
2019-04-30T08:00:25.580Z,11.00
2019-04-30T08:02:36.390Z,11.50
2019-04-30T08:04:52.953Z,12.00
2019-04-30T08:06:59.713Z,12.10
2019-04-30T08:09:05.334Z,12.30
2019-04-30T08:11:09.377Z,12.60
2019-04-30T08:13:15.755Z,12.60
2019-04-30T08:15:20.014Z,12.60
2019-04-30T08:17:23.742Z,12.40
2019-04-30T08:19:28.718Z,12.30
2019-04-30T08:21:32.543Z,12.20
2019-04-30T08:23:37.203Z,12.90
2019-04-30T08:25:41.653Z,13.20
2019-04-30T08:27:45.901Z,13.30
2019-04-30T08:29:50.106Z,13.30
2019-04-30T08:31:53.826Z,13.40
2019-04-30T08:33:59.136Z,12.70
2019-04-30T08:36:03.108Z,12.50
2019-04-30T08:38:06.791Z,12.20
2019-04-30T08:40:10.661Z,12.30
2019-04-30T08:42:14.441Z,12.70
2019-04-30T08:44:20.821Z,13.00
2019-04-30T08:46:23.638Z,13.20
2019-04-30T08:48:43.640Z,13.60
2019-04-30T08:50:32.869Z,13.60
2019-04-30T08:52:36.636Z,13.50
2019-04-30T08:54:40.346Z,13.40
2019-04-30T08:56:44.040Z,13.40
2019-04-30T08:58:49.099Z,13.30
2019-04-30T09:00:52.874Z,12.90
2019-04-30T09:02:56.538Z,11.70
2019-04-30T09:05:01.922Z,11.80
2019-04-30T09:07:05.579Z,11.90
2019-04-30T09:09:11.113Z,12.20
2019-04-30T09:11:24.637Z,11.20
2019-04-30T09:13:20.272Z,11.20
2019-04-30T09:15:23.968Z,12.00
2019-04-30T09:17:29.716Z,12.80
2019-04-30T09:19:33.349Z,12.80
2019-04-30T09:21:39.962Z,13.10
2019-04-30T09:23:49.371Z,12.40
2019-04-30T09:25:49.636Z,12.30
2019-04-30T09:27:53.189Z,12.60
2019-04-30T09:29:58.771Z,12.50
2019-04-30T09:32:02.390Z,12.80
2019-04-30T09:34:15.176Z,13.20
2019-04-30T09:36:11.485Z,13.30
2019-04-30T09:38:15.179Z,13.70
2019-04-30T09:40:21.177Z,13.60
2019-04-30T09:42:24.542Z,13.40
2019-04-30T09:44:30.529Z,13.00
2019-04-30T09:46:33.826Z,12.30
2019-04-30T09:48:38.627Z,12.40
2019-04-30T09:50:42.536Z,11.00
2019-04-30T09:52:46.471Z,11.30
2019-04-30T09:54:50.952Z,10.70
2019-04-30T09:56:55.096Z,11.80
2019-04-30T09:58:59.228Z,12.70
2019-04-30T10:01:03.373Z,12.60
2019-04-30T10:03:09.868Z,12.00
2019-04-30T10:05:13.293Z,12.70
2019-04-30T10:07:19.545Z,13.00
2019-04-30T10:09:23.382Z,13.50
2019-04-30T10:11:37.769Z,13.10
2019-04-30T10:13:41.442Z,12.50
2019-04-30T10:15:52.506Z,11.90
2019-04-30T10:17:57.035Z,12.20
2019-04-30T10:20:00.677Z,12.70
2019-04-30T10:22:04.674Z,12.00
2019-04-30T10:24:14.743Z,12.10
2019-04-30T10:26:13.850Z,12.50
2019-04-30T10:28:19.525Z,12.40
2019-04-30T10:30:25.944Z,13.10
2019-04-30T10:32:30.062Z,12.50
2019-04-30T10:34:33.958Z,12.40
2019-04-30T10:36:39.086Z,13.00
2019-04-30T10:38:43.065Z,12.90
2019-04-30T10:40:48.634Z,12.90
2019-04-30T10:42:53.695Z,12.50
2019-04-30T10:44:59.996Z,13.10
2019-04-30T10:47:02.980Z,13.30
2019-04-30T10:49:06.683Z,13.60
2019-04-30T10:51:12.220Z,13.60
2019-04-30T10:53:16.223Z,14.00
2019-04-30T10:55:20.022Z,14.00
2019-04-30T10:57:25.314Z,12.90
2019-04-30T10:59:28.978Z,12.00
2019-04-30T11:01:32.673Z,12.20
2019-04-30T11:03:36.589Z,12.90
2019-04-30T11:05:41.323Z,13.30
2019-04-30T11:07:45.326Z,13.50
2019-04-30T11:09:49.427Z,13.10
2019-04-30T11:11:53.159Z,13.60
2019-04-30T11:13:56.862Z,13.70
2019-04-30T11:16:12.170Z,13.50
2019-04-30T11:18:06.163Z,13.80
2019-04-30T11:20:10.524Z,13.70
2019-04-30T11:22:14.621Z,13.40
2019-04-30T11:24:19.609Z,13.40
2019-04-30T11:26:24.022Z,13.30
2019-04-30T11:28:28.767Z,13.40
2019-04-30T11:30:33.184Z,13.90
2019-04-30T11:32:37.188Z,14.10
2019-04-30T11:34:40.932Z,14.20
2019-04-30T11:36:44.674Z,13.80
2019-04-30T11:38:48.795Z,13.80
2019-04-30T11:40:52.609Z,14.40
2019-04-30T11:42:56.403Z,14.50
2019-04-30T11:45:00.108Z,13.90
2019-04-30T11:47:12.949Z,13.50
2019-04-30T11:49:16.642Z,13.50
2019-04-30T11:51:20.307Z,13.50
2019-04-30T11:53:27.769Z,14.10
2019-04-30T11:55:29.803Z,14.10
2019-04-30T11:57:33.475Z,13.90
2019-04-30T11:59:37.195Z,13.90
2019-04-30T12:01:41.378Z,13.70
2019-04-30T12:03:45.164Z,13.80
2019-04-30T12:05:49.250Z,14.00
2019-04-30T12:07:54.599Z,14.40
2019-04-30T12:10:15.674Z,14.60
2019-04-30T12:12:19.350Z,14.90
2019-04-30T12:14:23.090Z,14.30
2019-04-30T12:16:28.513Z,14.10
2019-04-30T12:18:32.354Z,14.50
2019-04-30T12:20:36.036Z,14.30
2019-04-30T12:22:39.801Z,14.70
2019-04-30T12:24:43.620Z,14.60
2019-04-30T12:26:48.852Z,13.90
2019-04-30T12:28:52.665Z,14.70
2019-04-30T12:30:56.361Z,14.50
2019-04-30T12:33:00.149Z,14.60
2019-04-30T12:35:05.044Z,13.80
2019-04-30T12:37:10.636Z,14.60
2019-04-30T12:39:14.138Z,15.30
2019-04-30T12:41:17.859Z,15.20
2019-04-30T12:43:21.547Z,14.70
2019-04-30T12:45:25.377Z,14.00
2019-04-30T12:47:30.620Z,14.40
2019-04-30T12:49:53.814Z,14.20
2019-04-30T12:52:08.725Z,14.00
2019-04-30T12:54:28.997Z,14.00
2019-04-30T12:56:34.272Z,14.10
2019-04-30T12:58:38.042Z,14.20
2019-04-30T13:00:41.731Z,14.70
2019-04-30T13:02:45.387Z,15.00
2019-04-30T13:04:49.358Z,15.00
2019-04-30T13:06:53.764Z,14.40
2019-04-30T13:09:00.340Z,14.30
2019-04-30T13:11:03.612Z,14.50
2019-04-30T13:13:08.034Z,14.80
2019-04-30T13:15:12.375Z,14.70
2019-04-30T13:17:16.179Z,14.10
2019-04-30T13:19:19.846Z,15.30
2019-04-30T13:21:23.500Z,16.00
2019-04-30T13:23:27.195Z,16.50
2019-04-30T13:25:35.395Z,17.10
2019-04-30T13:27:37.854Z,17.00
2019-04-30T13:29:55.022Z,17.00
2019-04-30T13:31:58.707Z,16.40
2019-04-30T13:34:20.435Z,15.80
2019-04-30T13:36:24.126Z,15.00
2019-04-30T13:38:45.151Z,14.70
2019-04-30T13:40:42.715Z,14.60
2019-04-30T13:42:50.659Z,15.10
2019-04-30T13:44:54.491Z,15.20
2019-04-30T13:46:58.232Z,15.50
2019-04-30T13:49:02.187Z,15.30
2019-04-30T13:51:07.649Z,15.60
2019-04-30T13:53:11.573Z,16.20
2019-04-30T13:55:15.230Z,16.40
2019-04-30T13:57:18.926Z,15.90
2019-04-30T13:59:22.635Z,15.00
2019-04-30T14:01:26.370Z,14.80
2019-04-30T14:03:31.793Z,14.70
2019-04-30T14:05:35.512Z,15.40
2019-04-30T14:07:52.496Z,15.40
2019-04-30T14:09:56.219Z,15.70
2019-04-30T14:11:59.927Z,16.00
2019-04-30T14:14:03.618Z,16.50
2019-04-30T14:16:07.283Z,16.00
2019-04-30T14:18:10.954Z,16.30
2019-04-30T14:20:14.864Z,15.60
2019-04-30T14:22:18.532Z,15.70
2019-04-30T14:24:22.227Z,15.70
2019-04-30T14:26:25.910Z,16.00
2019-04-30T14:28:29.597Z,16.30
2019-04-30T14:30:33.273Z,15.60
2019-04-30T14:32:37.051Z,15.50
2019-04-30T14:34:40.749Z,15.50
2019-04-30T14:36:44.422Z,15.50
2019-04-30T14:38:48.862Z,16.00
2019-04-30T14:40:53.487Z,15.30
2019-04-30T14:43:09.877Z,15.70
2019-04-30T14:45:17.553Z,16.40
2019-04-30T14:47:40.424Z,16.90
2019-04-30T14:49:56.801Z,17.00
2019-04-30T14:51:51.422Z,15.90
2019-04-30T14:53:58.766Z,15.80
2019-04-30T14:56:15.575Z,15.60
2019-04-30T14:58:36.935Z,16.00
2019-04-30T15:00:54.267Z,16.80
2019-04-30T15:03:11.496Z,16.90
2019-04-30T15:05:17.150Z,17.20
2019-04-30T15:07:20.835Z,17.40
2019-04-30T15:09:24.515Z,17.80
2019-04-30T15:11:28.862Z,17.60
2019-04-30T15:13:32.628Z,16.90
2019-04-30T15:15:36.456Z,17.00
2019-04-30T15:17:41.207Z,16.40
2019-04-30T15:19:44.999Z,15.50
2019-04-30T15:21:48.749Z,16.10
2019-04-30T15:24:01.396Z,15.30
2019-04-30T15:26:03.663Z,15.10
2019-04-30T15:28:07.335Z,15.70
2019-04-30T15:30:11.103Z,16.00
2019-04-30T15:32:14.806Z,16.30
2019-04-30T15:34:19.237Z,16.70
2019-04-30T15:36:23.152Z,17.30
2019-04-30T15:38:44.529Z,17.00
2019-04-30T15:40:48.229Z,17.70
2019-04-30T15:42:53.505Z,17.80
2019-04-30T15:44:59.262Z,17.50
2019-04-30T15:47:04.368Z,16.50
2019-04-30T15:49:08.106Z,16.50
2019-04-30T15:51:15.321Z,17.00
2019-04-30T15:53:19.251Z,17.70
2019-04-30T15:55:22.801Z,17.70
2019-04-30T15:57:26.491Z,17.40
2019-04-30T15:59:31.739Z,16.80
2019-04-30T16:01:35.464Z,16.90
2019-04-30T16:03:43.282Z,16.80
2019-04-30T16:05:48.527Z,16.60
2019-04-30T16:07:56.401Z,16.60
2019-04-30T16:10:01.662Z,15.50
2019-04-30T16:12:06.931Z,15.60
2019-04-30T16:14:15.171Z,15.90
2019-04-30T16:16:19.269Z,15.70
2019-04-30T16:18:23.679Z,15.70
2019-04-30T16:20:29.893Z,15.70
2019-04-30T16:22:32.782Z,15.40
2019-04-30T16:24:38.535Z,15.40
2019-04-30T16:26:50.018Z,16.10
2019-04-30T16:28:49.354Z,16.00
2019-04-30T16:30:52.644Z,16.60
2019-04-30T16:32:56.590Z,17.00
2019-04-30T16:35:00.278Z,17.50
2019-04-30T16:37:03.955Z,17.30
2019-04-30T16:39:09.442Z,17.20
2019-04-30T16:41:13.101Z,15.90
2019-04-30T16:43:18.651Z,16.20
2019-04-30T16:45:22.175Z,16.10
2019-04-30T16:47:25.841Z,15.50
2019-04-30T16:49:29.534Z,15.00
2019-04-30T16:51:33.210Z,14.50
2019-04-30T16:53:38.641Z,15.10
2019-04-30T16:55:42.356Z,15.90
2019-04-30T16:57:46.040Z,16.20
2019-04-30T16:59:53.496Z,16.40
2019-04-30T17:01:59.916Z,16.50
2019-04-30T17:04:09.017Z,15.90
2019-04-30T17:06:20.068Z,15.70
2019-04-30T17:08:25.315Z,16.30
2019-04-30T17:10:30.582Z,16.50
2019-04-30T17:12:41.738Z,16.90
2019-04-30T17:14:45.487Z,16.90
2019-04-30T17:16:49.477Z,16.90
2019-04-30T17:18:53.195Z,16.40
2019-04-30T17:20:58.585Z,17.10
2019-04-30T17:23:02.372Z,17.50
2019-04-30T17:25:07.181Z,16.90
2019-04-30T17:27:19.434Z,16.70
2019-04-30T17:29:16.432Z,16.80
2019-04-30T17:31:20.089Z,16.90
2019-04-30T17:33:23.962Z,16.20
2019-04-30T17:35:28.902Z,16.70
2019-04-30T17:37:32.713Z,17.20
2019-04-30T17:39:36.532Z,17.20
2019-04-30T17:41:40.202Z,17.50
2019-04-30T17:43:44.228Z,17.80
2019-04-30T17:45:49.301Z,18.00
2019-04-30T17:47:53.387Z,18.10
2019-04-30T17:49:58.887Z,18.20
2019-04-30T17:52:02.519Z,18.30
2019-04-30T17:54:15.571Z,18.20
2019-04-30T17:56:19.282Z,18.30
2019-04-30T17:58:23.167Z,18.40
2019-04-30T18:00:29.281Z,17.90
2019-04-30T18:02:33.131Z,17.80
2019-04-30T18:04:36.966Z,17.00
2019-04-30T18:06:40.689Z,17.00
2019-04-30T18:08:44.348Z,17.60
2019-04-30T18:10:48.210Z,16.80
2019-04-30T18:12:51.966Z,17.00
2019-04-30T18:14:55.627Z,17.30
2019-04-30T18:17:01.350Z,17.50
2019-04-30T18:19:06.592Z,17.00
2019-04-30T18:21:11.835Z,17.90
2019-04-30T18:23:20.050Z,17.90
2019-04-30T18:25:25.383Z,17.90
2019-04-30T18:27:42.929Z,17.70
2019-04-30T18:29:38.560Z,17.60
2019-04-30T18:31:42.265Z,17.70
2019-04-30T18:33:45.927Z,17.80
2019-04-30T18:35:49.598Z,17.90
2019-04-30T18:37:53.290Z,18.00
2019-04-30T18:40:00.020Z,18.10
2019-04-30T18:42:02.408Z,18.10
2019-04-30T18:44:06.287Z,18.00
2019-04-30T18:46:10.875Z,17.90
2019-04-30T18:48:14.821Z,17.80
2019-04-30T18:50:18.494Z,17.50
2019-04-30T18:52:22.193Z,17.40
2019-04-30T18:54:26.013Z,17.30
2019-04-30T18:56:29.700Z,17.30
2019-04-30T18:58:39.850Z,17.40
2019-04-30T19:00:43.038Z,17.30
2019-04-30T19:02:48.486Z,17.30
2019-04-30T19:04:52.290Z,17.10
2019-04-30T19:06:57.667Z,17.00
2019-04-30T19:09:09.619Z,17.10
2019-04-30T19:11:18.800Z,17.10
2019-04-30T19:13:40.455Z,16.90
2019-04-30T19:16:19.651Z,16.80
2019-04-30T19:18:10.972Z,16.60
2019-04-30T19:20:24.843Z,16.30
2019-04-30T19:22:28.674Z,16.10
2019-04-30T19:24:32.412Z,16.00
2019-04-30T19:26:36.090Z,16.00
2019-04-30T19:28:39.769Z,15.90
2019-04-30T19:30:55.879Z,15.80
2019-04-30T19:32:51.243Z,15.80
2019-04-30T19:34:55.001Z,15.80
2019-04-30T19:36:58.708Z,15.70
2019-04-30T19:39:02.458Z,15.80
2019-04-30T19:41:06.136Z,15.80
2019-04-30T19:43:09.799Z,15.80
2019-04-30T19:45:13.736Z,15.70
2019-04-30T19:47:19.124Z,15.70
2019-04-30T19:49:23.304Z,15.50
2019-04-30T19:51:27.299Z,15.50
2019-04-30T19:53:31.026Z,15.50
2019-04-30T19:55:34.907Z,15.60
2019-04-30T19:57:39.916Z,15.50
2019-04-30T19:59:43.753Z,15.20
2019-04-30T20:01:48.837Z,14.70
2019-04-30T20:03:52.586Z,14.60
2019-04-30T20:05:56.304Z,14.70
2019-04-30T20:08:00.133Z,14.80
2019-04-30T20:10:05.458Z,14.60
2019-04-30T20:12:10.644Z,14.60
2019-04-30T20:14:14.580Z,14.60
2019-04-30T20:16:19.568Z,14.40
2019-04-30T20:18:23.329Z,14.60
2019-04-30T20:20:28.771Z,14.70
2019-04-30T20:22:32.644Z,14.80
2019-04-30T20:24:36.508Z,14.80
2019-04-30T20:26:40.300Z,14.90
2019-04-30T20:28:43.983Z,14.90
2019-04-30T20:30:49.022Z,14.90
2019-04-30T20:32:52.862Z,14.80
2019-04-30T20:34:56.618Z,14.40
2019-04-30T20:37:00.427Z,14.10
2019-04-30T20:39:07.958Z,14.10
2019-04-30T20:41:12.655Z,13.90
2019-04-30T20:43:18.528Z,14.00
2019-04-30T20:45:21.878Z,14.00
2019-04-30T20:47:25.863Z,14.00
2019-04-30T20:49:29.665Z,14.10
2019-04-30T20:51:33.377Z,14.10
2019-04-30T20:53:39.127Z,14.10
2019-04-30T20:55:42.578Z,14.10
2019-04-30T20:57:46.298Z,14.10
2019-04-30T20:59:49.961Z,14.20
2019-04-30T21:01:53.672Z,14.10
2019-04-30T21:03:57.345Z,14.00
2019-04-30T21:06:01.034Z,14.00
2019-04-30T21:08:04.735Z,14.10
2019-04-30T21:10:10.867Z,14.10
2019-04-30T21:12:14.802Z,14.20
2019-04-30T21:14:19.287Z,13.90
2019-04-30T21:16:23.139Z,13.90
2019-04-30T21:18:29.808Z,13.90
2019-04-30T21:20:32.314Z,13.70
2019-04-30T21:22:36.031Z,13.60
2019-04-30T21:24:39.978Z,13.50
2019-04-30T21:26:43.793Z,13.40
2019-04-30T21:28:49.406Z,13.30
2019-04-30T21:30:52.935Z,13.30
2019-04-30T21:32:59.422Z,13.40
2019-04-30T21:35:21.120Z,13.40
2019-04-30T21:37:24.886Z,13.50
2019-04-30T21:39:28.595Z,13.60
2019-04-30T21:41:32.270Z,13.60
2019-04-30T21:43:35.954Z,13.60
2019-04-30T21:45:39.989Z,13.60
2019-04-30T21:47:55.348Z,13.80
2019-04-30T21:49:49.134Z,13.80
2019-04-30T21:51:52.781Z,13.80
2019-04-30T21:53:56.490Z,13.80
2019-04-30T21:56:00.175Z,13.70
2019-04-30T21:58:03.943Z,13.30
2019-04-30T22:00:14.778Z,12.70
2019-04-30T22:02:18.553Z,12.70
2019-04-30T22:04:22.250Z,12.60
2019-04-30T22:06:29.443Z,11.50
2019-04-30T22:08:32.998Z,11.90
2019-04-30T22:10:36.754Z,12.30
2019-04-30T22:12:40.443Z,12.20
2019-04-30T22:14:44.131Z,11.80
2019-04-30T22:16:49.433Z,11.50
2019-04-30T22:18:53.277Z,11.30
2019-04-30T22:20:57.050Z,10.40
2019-04-30T22:23:00.887Z,10.50
2019-04-30T22:25:06.196Z,11.10
2019-04-30T22:27:09.854Z,11.00
2019-04-30T22:29:13.582Z,10.60
2019-04-30T22:31:17.329Z,11.20
2019-04-30T22:33:20.990Z,11.40
2019-04-30T22:35:26.254Z,11.10
2019-04-30T22:37:29.911Z,10.60
2019-04-30T22:39:39.575Z,11.20
2019-04-30T22:41:43.078Z,11.70
2019-04-30T22:43:46.871Z,11.80
2019-04-30T22:46:06.888Z,12.10
2019-04-30T22:48:10.574Z,12.50
2019-04-30T22:50:15.457Z,12.60
2019-04-30T22:52:21.800Z,12.70
2019-04-30T22:54:24.525Z,12.80
2019-04-30T22:56:28.330Z,12.90
2019-04-30T22:58:31.991Z,13.00
2019-04-30T23:00:37.243Z,12.90
2019-04-30T23:02:42.616Z,12.90
2019-04-30T23:04:47.850Z,12.90
2019-04-30T23:06:51.546Z,13.00
2019-04-30T23:08:55.213Z,13.00
2019-04-30T23:10:59.067Z,12.90
2019-04-30T23:13:02.727Z,12.60
2019-04-30T23:15:07.689Z,12.60
2019-04-30T23:17:11.384Z,12.60
2019-04-30T23:19:15.046Z,12.60
2019-04-30T23:21:18.770Z,12.70
2019-04-30T23:23:22.443Z,12.50
2019-04-30T23:25:26.159Z,12.30
2019-04-30T23:27:29.877Z,12.50
2019-04-30T23:29:33.541Z,12.60
2019-04-30T23:31:56.509Z,12.70
2019-04-30T23:34:00.177Z,12.60
2019-04-30T23:36:03.883Z,12.60
2019-04-30T23:38:07.683Z,12.70
2019-04-30T23:40:24.747Z,12.70
2019-04-30T23:42:28.432Z,12.70
2019-04-30T23:44:32.146Z,12.70
2019-04-30T23:46:35.830Z,12.50
2019-04-30T23:48:39.590Z,12.50
2019-04-30T23:50:43.566Z,12.40
2019-04-30T23:52:47.283Z,12.40
2019-04-30T23:54:51.022Z,12.40
2019-04-30T23:56:54.699Z,12.40
2019-04-30T23:59:17.496Z,12.50
